Time;durP1;ratioP1;P1;durP2;ratioP2;P2;SDS_P1;SDS_P2;PMS_P1;PMS_P2;Temp;Humidity;BMP_temperature;BMP_pressure;BME280_temperature;BME280_humidity;BME280_pressure;Samples;Min_cycle;Max_cycle;Signal;HPM_P1;HPM_P2
2022/04/13 00:02:22;;;;;;;3.17;2.30;;;;;;;7.61;46.90;99515.23;1686501;83;21525;-66
2022/04/13 00:04:50;;;;;;;3.62;1.90;;;;;;;7.61;46.91;99508.63;1717460;83;20868;-66
2022/04/13 00:07:17;;;;;;;4.90;2.50;;;;;;;7.61;46.91;99507.78;1714859;82;21009;-66
2022/04/13 00:09:45;;;;;;;3.87;2.65;;;;;;;7.58;46.97;99516.02;1711408;83;20936;-66
2022/04/13 00:12:11;;;;;;;4.95;2.25;;;;;;;7.58;46.98;99518.19;1713891;83;20888;-64
2022/04/13 00:14:38;;;;;;;4.17;2.60;;;;;;;7.56;47.00;99512.70;1713393;82;20982;-68
2022/04/13 00:17:05;;;;;;;3.10;2.05;;;;;;;7.56;47.03;99524.61;1713586;82;20947;-62
2022/04/13 00:19:31;;;;;;;4.92;2.85;;;;;;;7.55;47.00;99515.83;1711296;82;20864;-65
2022/04/13 00:21:59;;;;;;;5.37;3.08;;;;;;;7.56;47.04;99522.77;1713833;82;20967;-67
2022/04/13 00:24:26;;;;;;;3.47;2.33;;;;;;;7.60;47.02;99519.34;1709895;82;21026;-70
2022/04/13 00:26:55;;;;;;;3.47;2.58;;;;;;;7.58;47.08;99517.34;1710502;82;20911;-68
2022/04/13 00:29:21;;;;;;;2.33;1.72;;;;;;;7.55;47.11;99513.67;1714869;82;20949;-64
2022/04/13 00:31:48;;;;;;;3.08;1.90;;;;;;;7.53;47.22;99512.99;1716031;82;20971;-67
2022/04/13 00:34:15;;;;;;;2.52;1.60;;;;;;;7.48;47.34;99520.87;1719082;83;22180;-63
2022/04/13 00:36:41;;;;;;;2.62;1.60;;;;;;;7.48;47.35;99512.94;1714694;82;20891;-65
2022/04/13 00:39:09;;;;;;;3.90;1.95;;;;;;;7.47;47.40;99513.09;1719840;82;21492;-65
2022/04/13 00:41:36;;;;;;;3.75;1.47;;;;;;;7.44;47.49;99522.17;1715837;82;21014;-65
2022/04/13 00:44:04;;;;;;;3.33;2.02;;;;;;;7.43;47.56;99520.98;1717045;82;21035;-65
2022/04/13 00:46:32;;;;;;;2.87;1.70;;;;;;;7.40;47.61;99520.78;1726147;82;21102;-65
2022/04/13 00:48:59;;;;;;;4.87;2.80;;;;;;;7.37;47.74;99517.62;1722025;82;20947;-67
2022/04/13 00:51:26;;;;;;;1.87;1.67;;;;;;;7.35;47.80;99523.05;1723788;82;21005;-65
2022/04/13 00:53:52;;;;;;;4.58;1.82;;;;;;;7.35;47.87;99520.41;1722444;82;21461;-66
2022/04/13 00:56:24;;;;;;;3.77;1.70;;;;;;;7.33;47.82;99519.72;1727545;81;20985;-64
2022/04/13 00:58:53;;;;;;;3.52;1.77;;;;;;;7.32;47.90;99522.53;1724244;82;21866;-63
2022/04/13 01:01:22;;;;;;;3.10;1.90;;;;;;;7.35;47.83;99514.30;1722993;82;20897;-64
2022/04/13 01:03:51;;;;;;;3.15;1.82;;;;;;;7.37;47.76;99508.36;1723965;82;21358;-64
2022/04/13 01:06:20;;;;;;;4.87;2.00;;;;;;;7.36;47.79;99511.49;1721242;82;20992;-63
2022/04/13 01:08:49;;;;;;;3.10;2.25;;;;;;;7.35;47.78;99513.78;1724083;82;20967;-68
2022/04/13 01:11:17;;;;;;;6.95;2.25;;;;;;;7.34;47.81;99523.21;1725035;82;21270;-66
2022/04/13 01:13:45;;;;;;;3.33;2.25;;;;;;;7.33;47.83;99516.23;1723763;82;22414;-66
2022/04/13 01:16:13;;;;;;;5.40;2.08;;;;;;;7.30;47.81;99517.37;1723632;82;20944;-64
2022/04/13 01:18:40;;;;;;;4.45;2.22;;;;;;;7.29;47.87;99515.72;1723889;82;21010;-64
2022/04/13 01:21:12;;;;;;;4.65;2.47;;;;;;;7.28;47.86;99518.02;1724944;82;21029;-67
2022/04/13 01:23:36;;;;;;;2.25;1.75;;;;;;;7.26;47.92;99512.53;1723557;82;21025;-63
2022/04/13 01:26:03;;;;;;;2.75;2.35;;;;;;;7.22;48.03;99511.17;1720277;82;20919;-64
2022/04/13 01:28:31;;;;;;;3.85;2.67;;;;;;;7.20;48.13;99513.95;1724023;82;21377;-63
2022/04/13 01:30:58;;;;;;;5.17;2.75;;;;;;;7.20;48.14;99512.63;1724432;82;20986;-67
2022/04/13 01:33:27;;;;;;;3.22;2.33;;;;;;;7.20;48.15;99512.63;1724262;81;21059;-64
2022/04/13 01:36:00;;;;;;;2.95;2.30;;;;;;;7.19;48.18;99516.28;1723912;82;21174;-63
2022/04/13 01:38:31;;;;;;;5.78;2.83;;;;;;;7.21;48.15;99512.98;1713663;82;20947;-67
2022/04/13 01:40:58;;;;;;;2.98;2.65;;;;;;;7.21;48.15;99514.31;1724662;82;21006;-64
2022/04/13 01:43:25;;;;;;;2.95;2.12;;;;;;;7.18;48.21;99519.89;1724278;81;20962;-67
2022/04/13 01:45:53;;;;;;;4.60;3.17;;;;;;;7.15;48.22;99521.50;1723605;82;21421;-66
2022/04/13 01:48:19;;;;;;;3.60;2.58;;;;;;;7.14;48.24;99525.15;1715620;82;21255;-67
2022/04/13 01:50:46;;;;;;;6.17;2.77;;;;;;;7.10;48.36;99529.53;1713911;83;21516;-67
2022/04/13 01:53:14;;;;;;;4.95;2.90;;;;;;;7.06;48.49;99532.14;1713691;83;21414;-65
2022/04/13 01:55:42;;;;;;;4.42;2.80;;;;;;;7.03;48.58;99527.98;1722357;82;20879;-63
2022/04/13 01:58:09;;;;;;;2.72;2.00;;;;;;;7.01;48.66;99529.11;1695324;82;21529;-66
2022/04/13 02:00:37;;;;;;;3.80;2.15;;;;;;;7.01;48.68;99533.91;1714121;82;20955;-65
2022/04/13 02:03:05;;;;;;;4.10;2.10;;;;;;;7.05;48.62;99526.50;1710960;83;20916;-66
2022/04/13 02:05:32;;;;;;;4.97;2.58;;;;;;;6.95;48.80;99531.84;1716486;82;20959;-70
2022/04/13 02:08:00;;;;;;;3.98;2.85;;;;;;;6.94;48.89;99531.48;1714014;83;20947;-65
2022/04/13 02:10:28;;;;;;;3.02;1.85;;;;;;;6.92;48.92;99528.16;1703964;83;20935;-64
2022/04/13 02:12:56;;;;;;;5.37;2.60;;;;;;;6.90;48.96;99528.80;1712164;82;21167;-67
2022/04/13 02:15:23;;;;;;;5.62;2.08;;;;;;;6.88;49.06;99534.73;1724181;82;21021;-68
2022/04/13 02:17:51;;;;;;;2.25;1.72;;;;;;;6.83;49.18;99535.63;1719137;82;20915;-67
2022/04/13 02:20:17;;;;;;;3.02;1.90;;;;;;;6.81;49.25;99541.56;1714372;82;21109;-64
2022/04/13 02:22:49;;;;;;;3.22;1.87;;;;;;;6.75;49.43;99540.84;1715310;82;21405;-65
2022/04/13 02:25:13;;;;;;;3.62;2.37;;;;;;;6.72;49.57;99542.45;1717559;82;22026;-64
2022/04/13 02:27:42;;;;;;;3.52;2.50;;;;;;;6.72;49.57;99533.19;1712892;82;20994;-63
2022/04/13 02:30:10;;;;;;;2.90;1.70;;;;;;;6.69;49.74;99546.70;1715875;82;20959;-64
2022/04/13 02:32:40;;;;;;;3.83;1.82;;;;;;;6.66;49.84;99547.81;1706220;82;20966;-64
2022/04/13 02:35:08;;;;;;;2.40;1.80;;;;;;;6.63;49.97;99549.42;1717448;82;20971;-64
2022/04/13 02:37:35;;;;;;;2.90;1.75;;;;;;;6.58;50.06;99547.70;1713220;83;21260;-66
2022/04/13 02:40:01;;;;;;;3.27;2.05;;;;;;;6.58;50.12;99542.41;1709324;82;20880;-64
2022/04/13 02:42:33;;;;;;;2.33;1.60;;;;;;;6.54;50.27;99543.69;1704205;82;20953;-66
2022/04/13 02:45:01;;;;;;;2.85;1.92;;;;;;;6.53;50.31;99544.66;1714451;82;20940;-67
2022/04/13 02:47:28;;;;;;;2.55;2.12;;;;;;;6.53;50.34;99545.13;1726747;82;20982;-65
2022/04/13 02:49:55;;;;;;;2.98;1.87;;;;;;;6.52;50.41;99537.69;1716278;82;21176;-63
2022/04/13 02:52:28;;;;;;;3.55;2.10;;;;;;;6.50;50.43;99544.94;1716790;82;21077;-66
2022/04/13 02:54:57;;;;;;;3.45;1.95;;;;;;;6.46;50.50;99538.77;1715889;82;21113;-65
2022/04/13 02:57:25;;;;;;;2.00;1.75;;;;;;;6.46;50.54;99545.37;1714183;82;21532;-66
2022/04/13 02:59:51;;;;;;;2.25;1.55;;;;;;;6.44;50.60;99549.97;1716349;82;20903;-68
2022/04/13 03:02:19;;;;;;;2.35;1.40;;;;;;;6.40;50.61;99548.09;1714250;82;21241;-66
2022/04/13 03:04:46;;;;;;;2.58;1.50;;;;;;;6.40;50.70;99551.21;1714868;82;20998;-68
2022/04/13 03:07:16;;;;;;;3.35;1.77;;;;;;;6.41;50.72;99554.22;1715781;82;20890;-64
2022/04/13 03:09:42;;;;;;;3.25;1.70;;;;;;;6.41;50.70;99557.70;1715956;82;20915;-66
2022/04/13 03:12:10;;;;;;;2.67;1.50;;;;;;;6.39;50.70;99553.02;1715713;82;20907;-66
2022/04/13 03:14:38;;;;;;;4.25;1.87;;;;;;;6.38;50.70;99552.69;1715967;82;21139;-67
2022/04/13 03:17:05;;;;;;;2.80;1.80;;;;;;;6.38;50.74;99550.05;1682999;83;20861;-66
2022/04/13 03:19:33;;;;;;;4.92;2.02;;;;;;;6.36;50.81;99556.45;1711241;83;20964;-64
2022/04/13 03:21:59;;;;;;;2.30;1.85;;;;;;;6.33;50.81;99548.80;1713634;82;20987;-64
2022/04/13 03:24:26;;;;;;;2.92;1.80;;;;;;;6.31;50.87;99554.20;1714219;83;21011;-65
2022/04/13 03:26:54;;;;;;;3.05;1.75;;;;;;;6.31;50.95;99551.56;1729177;82;20884;-64
2022/04/13 03:29:20;;;;;;;3.02;1.98;;;;;;;6.32;50.95;99555.05;1713764;82;20935;-66
2022/04/13 03:31:47;;;;;;;5.15;2.70;;;;;;;6.33;50.94;99560.20;1706149;82;20974;-65
2022/04/13 03:34:19;;;;;;;4.95;2.17;;;;;;;6.33;50.91;99558.89;1715875;83;21457;-65
2022/04/13 03:36:43;;;;;;;3.10;2.25;;;;;;;6.34;50.94;99558.37;1706732;84;21384;-62
2022/04/13 03:39:10;;;;;;;2.45;1.70;;;;;;;6.34;50.97;99562.34;1685036;83;21149;-62
2022/04/13 03:41:38;;;;;;;3.55;2.27;;;;;;;6.33;51.10;99563.33;1711407;82;20967;-65
2022/04/13 03:44:06;;;;;;;2.27;2.08;;;;;;;6.36;51.04;99560.41;1713940;82;20931;-64
2022/04/13 03:46:34;;;;;;;3.42;2.30;;;;;;;6.39;51.03;99560.94;1720997;82;21431;-66
2022/04/13 03:49:01;;;;;;;5.80;2.92;;;;;;;6.48;51.15;99560.59;1717406;83;21041;-65
2022/04/13 03:51:29;;;;;;;7.28;4.42;;;;;;;6.64;51.21;99562.16;1712429;83;22675;-65
2022/04/13 03:53:57;;;;;;;7.70;3.75;;;;;;;6.91;51.06;99562.70;1719123;82;20935;-68
2022/04/13 03:56:23;;;;;;;4.97;3.45;;;;;;;7.24;50.63;99560.32;1709090;82;20960;-65
2022/04/13 03:58:51;;;;;;;5.05;3.72;;;;;;;7.61;50.17;99556.77;1696561;83;20885;-66
2022/04/13 04:01:17;;;;;;;6.08;3.80;;;;;;;8.02;49.40;99557.49;1697883;83;21002;-64
2022/04/13 04:03:45;;;;;;;4.92;3.08;;;;;;;8.42;48.71;99556.52;1696337;83;21473;-67
2022/04/13 04:06:13;;;;;;;6.20;3.55;;;;;;;8.86;47.99;99560.46;1728468;82;20982;-66
2022/04/13 04:08:40;;;;;;;6.12;4.22;;;;;;;9.28;46.88;99558.68;1714564;83;20987;-64
2022/04/13 04:11:08;;;;;;;4.87;3.65;;;;;;;9.67;45.96;99558.45;1718057;82;20958;-67
2022/04/13 04:13:35;;;;;;;5.62;3.52;;;;;;;10.07;45.04;99562.16;1722373;83;21013;-67
2022/04/13 04:16:01;;;;;;;6.72;3.33;;;;;;;10.46;44.01;99563.20;1728511;82;21215;-67
2022/04/13 04:18:29;;;;;;;3.45;3.15;;;;;;;10.83;43.15;99562.16;1712214;83;21070;-63
2022/04/13 04:20:56;;;;;;;3.80;3.08;;;;;;;11.22;42.43;99564.86;1719111;83;20986;-66
2022/04/13 04:23:23;;;;;;;7.08;3.62;;;;;;;11.56;41.58;99558.72;1721430;82;21536;-65
2022/04/13 04:25:49;;;;;;;5.00;4.17;;;;;;;11.90;40.86;99560.22;1720283;82;20998;-66
2022/04/13 04:28:16;;;;;;;6.17;3.70;;;;;;;12.27;40.17;99565.13;1722289;83;21265;-64
2022/04/13 04:30:44;;;;;;;5.20;2.87;;;;;;;12.64;39.45;99560.80;1720101;82;21425;-63
2022/04/13 04:33:16;;;;;;;2.95;2.22;;;;;;;12.93;38.59;99559.51;1722584;83;21049;-64
2022/04/13 04:35:46;;;;;;;3.35;2.35;;;;;;;13.21;38.06;99557.88;1721639;82;21001;-66
2022/04/13 04:38:13;;;;;;;3.35;2.52;;;;;;;13.53;37.47;99556.12;1718160;82;21449;-64
2022/04/13 04:40:40;;;;;;;3.47;2.37;;;;;;;13.90;36.86;99557.78;1722623;83;21100;-68
2022/04/13 04:43:07;;;;;;;8.78;6.95;;;;;;;14.21;36.30;99559.64;1718083;83;20986;-67
2022/04/13 04:45:33;;;;;;;4.05;2.87;;;;;;;14.58;35.58;99557.72;1720308;82;22251;-66
2022/04/13 04:48:04;;;;;;;4.15;2.70;;;;;;;14.91;34.78;99564.67;1714246;82;21025;-65
2022/04/13 04:50:28;;;;;;;3.50;1.75;;;;;;;15.23;34.25;99569.39;1712007;83;21536;-66
2022/04/13 04:52:56;;;;;;;2.27;1.82;;;;;;;15.57;33.38;99557.83;1719305;82;21266;-64
2022/04/13 04:55:22;;;;;;;4.45;1.87;;;;;;;15.84;33.02;99556.40;1723819;82;20982;-65
2022/04/13 04:57:51;;;;;;;2.58;1.52;;;;;;;16.14;32.50;99550.70;1707681;82;20964;-66
2022/04/13 05:00:20;;;;;;;6.25;1.72;;;;;;;16.40;31.99;99550.19;1719022;82;21074;-68
2022/04/13 05:02:50;;;;;;;3.70;1.60;;;;;;;16.68;31.55;99549.20;1722668;82;21053;-65
2022/04/13 05:05:19;;;;;;;3.42;1.50;;;;;;;16.97;31.23;99554.92;1721641;82;20951;-64
2022/04/13 05:07:46;;;;;;;2.47;1.60;;;;;;;17.35;30.62;99544.30;1709116;82;20937;-66
2022/04/13 05:10:14;;;;;;;2.42;1.45;;;;;;;17.75;30.18;99553.88;1721425;83;20856;-66
2022/04/13 05:12:53;;;;;;;2.10;1.77;;;;;;;18.12;29.36;99545.48;1719602;82;20915;-67
2022/04/13 05:15:20;;;;;;;4.85;2.33;;;;;;;18.35;28.80;99557.86;1721474;82;21004;-64
2022/04/13 05:17:47;;;;;;;3.45;2.85;;;;;;;18.60;28.53;99550.35;1722553;82;21254;-66
2022/04/13 05:20:15;;;;;;;3.10;2.08;;;;;;;18.88;28.05;99553.41;1718332;82;21070;-66
2022/04/13 05:22:41;;;;;;;3.47;2.27;;;;;;;19.15;27.51;99563.42;1722521;83;20947;-67
2022/04/13 05:25:12;;;;;;;7.10;1.92;;;;;;;19.43;27.07;99557.84;1726869;82;21187;-64
2022/04/13 05:27:40;;;;;;;3.45;1.75;;;;;;;19.61;26.76;99560.53;1698989;83;20956;-65
2022/04/13 05:30:10;;;;;;;2.83;1.65;;;;;;;19.87;26.42;99566.63;1699825;83;21328;-64
2022/04/13 05:32:56;;;;;;;3.72;1.70;;;;;;;20.13;26.05;99564.91;1714986;82;21505;-64
2022/04/13 05:35:22;;;;;;;4.12;1.75;;;;;;;20.41;25.76;99568.39;1722001;82;21447;-65
2022/04/13 05:37:48;;;;;;;6.10;1.90;;;;;;;20.78;25.38;99559.86;1720690;81;21607;-63
2022/04/13 05:40:15;;;;;;;3.55;2.30;;;;;;;21.11;24.91;99562.03;1704124;82;21080;-63
2022/04/13 05:42:42;;;;;;;3.10;1.42;;;;;;;21.36;24.52;99556.34;1700020;82;21267;-65
2022/04/13 05:45:10;;;;;;;3.55;1.90;;;;;;;21.52;24.31;99553.73;1711429;82;20961;-64
2022/04/13 05:47:38;;;;;;;3.92;2.15;;;;;;;21.77;23.80;99548.54;1677872;84;21002;-65
2022/04/13 05:50:06;;;;;;;3.25;2.45;;;;;;;21.88;23.62;99549.87;1710997;82;21155;-65
2022/04/13 05:52:33;;;;;;;3.65;2.30;;;;;;;22.03;23.04;99550.15;1697221;83;21444;-65
2022/04/13 05:55:01;;;;;;;3.15;2.33;;;;;;;22.08;22.57;99546.73;1696104;83;20947;-66
2022/04/13 05:57:28;;;;;;;2.47;1.82;;;;;;;22.15;22.41;99554.17;1691418;83;21529;-64
2022/04/13 05:59:54;;;;;;;3.42;2.55;;;;;;;22.25;22.17;99548.10;1690391;84;21421;-67
2022/04/13 06:02:27;;;;;;;2.85;2.17;;;;;;;22.38;21.83;99551.33;1694738;83;21027;-65
2022/04/13 06:04:53;;;;;;;4.35;3.50;;;;;;;22.57;21.70;99551.92;1693662;83;20938;-65
2022/04/13 06:07:20;;;;;;;5.25;2.80;;;;;;;22.81;21.51;99555.33;1693366;83;21172;-65
2022/04/13 06:09:48;;;;;;;2.80;1.60;;;;;;;23.10;21.15;99554.94;1692801;84;21053;-67
2022/04/13 06:12:23;;;;;;;1.98;1.20;;;;;;;23.35;20.81;99559.39;1690345;84;21061;-66
2022/04/13 06:14:50;;;;;;;3.10;1.55;;;;;;;23.37;20.50;99561.88;1686520;84;21065;-68
2022/04/13 06:17:17;;;;;;;1.87;1.57;;;;;;;23.47;20.41;99563.89;1681867;83;21010;-66
2022/04/13 06:19:43;;;;;;;2.08;1.25;;;;;;;23.66;20.19;99563.34;1689715;84;21264;-66
2022/04/13 06:22:11;;;;;;;2.65;1.42;;;;;;;23.65;19.81;99565.77;1694290;84;21558;-63
2022/04/13 06:24:38;;;;;;;1.82;1.32;;;;;;;23.73;19.74;99564.49;1694115;83;20915;-64
2022/04/13 06:27:05;;;;;;;3.12;1.60;;;;;;;23.79;19.70;99569.75;1694535;83;20991;-65
2022/04/13 06:29:32;;;;;;;2.50;1.47;;;;;;;23.94;19.60;99565.84;1699986;83;20876;-65
2022/04/13 06:32:00;;;;;;;4.05;1.32;;;;;;;24.04;19.25;99567.84;1696254;83;21166;-66
2022/04/13 06:34:26;;;;;;;2.15;1.10;;;;;;;24.16;19.16;99563.12;1712705;82;21011;-66
2022/04/13 06:36:54;;;;;;;3.98;1.60;;;;;;;24.26;18.88;99562.40;1699843;83;21034;-67
2022/04/13 06:39:22;;;;;;;1.30;1.00;;;;;;;24.10;18.89;99569.58;1717001;82;21230;-64
2022/04/13 06:41:49;;;;;;;3.35;1.25;;;;;;;24.21;18.97;99576.77;1717614;82;20983;-65
2022/04/13 06:44:15;;;;;;;2.15;1.95;;;;;;;24.33;19.10;99573.34;1691360;84;21286;-66
2022/04/13 06:46:42;;;;;;;4.30;2.17;;;;;;;24.33;19.10;99573.34;1711019;83;21565;-66
2022/04/13 06:49:10;;;;;;;1.52;1.10;;;;;;;24.49;18.63;99575.66;1715174;82;20978;-66
2022/04/13 06:51:38;;;;;;;1.55;1.30;;;;;;;24.66;18.06;99572.30;1709765;82;21133;-67
2022/04/13 06:54:05;;;;;;;2.98;1.98;;;;;;;24.65;18.04;99576.63;1716338;82;21011;-65
2022/04/13 06:56:32;;;;;;;8.73;1.50;;;;;;;24.67;18.21;99579.36;1716330;83;21018;-65
2022/04/13 06:58:59;;;;;;;2.87;1.10;;;;;;;24.85;17.95;99572.19;1716350;82;20983;-64
2022/04/13 07:01:27;;;;;;;3.72;1.40;;;;;;;24.81;18.22;99574.34;1674393;83;21053;-65
2022/04/13 07:03:54;;;;;;;2.87;1.65;;;;;;;24.96;17.85;99573.09;1720937;82;21473;-64
2022/04/13 07:06:21;;;;;;;3.08;1.67;;;;;;;24.99;17.82;99578.02;1686754;83;20904;-64
2022/04/13 07:08:49;;;;;;;2.22;1.85;;;;;;;24.85;17.97;99576.27;1715437;82;21240;-64
2022/04/13 07:11:17;;;;;;;3.02;1.65;;;;;;;24.98;17.75;99570.38;1687814;83;21071;-67
2022/04/13 07:13:44;;;;;;;2.37;1.30;;;;;;;25.01;17.67;99574.48;1717834;83;20971;-65
2022/04/13 07:16:12;;;;;;;2.80;1.42;;;;;;;25.11;17.51;99577.27;1713770;82;20916;-64
2022/04/13 07:18:40;;;;;;;4.10;1.50;;;;;;;25.15;17.56;99570.23;1715597;82;20990;-66
2022/04/13 07:21:06;;;;;;;6.53;1.60;;;;;;;25.30;17.53;99568.96;1723579;81;21410;-65
2022/04/13 07:23:34;;;;;;;2.45;0.90;;;;;;;25.49;17.24;99562.56;1712643;83;20895;-65
2022/04/13 07:26:01;;;;;;;1.62;1.20;;;;;;;25.38;16.79;99561.66;1720149;82;20982;-63
2022/04/13 07:28:27;;;;;;;5.08;1.35;;;;;;;25.21;17.06;99567.01;1726295;81;21030;-65
2022/04/13 07:30:54;;;;;;;5.08;1.07;;;;;;;25.13;17.05;99569.12;1718920;83;20931;-64
2022/04/13 07:33:21;;;;;;;2.80;0.90;;;;;;;25.18;17.20;99571.08;1720666;83;21270;-63
2022/04/13 07:35:47;;;;;;;2.52;1.40;;;;;;;25.44;17.04;99572.03;1718942;82;20919;-65
2022/04/13 07:38:14;;;;;;;5.67;1.22;;;;;;;25.62;16.82;99558.81;1721409;82;21453;-66
2022/04/13 07:40:41;;;;;;;11.00;1.27;;;;;;;25.72;16.38;99556.66;1718849;83;20986;-68
2022/04/13 07:43:07;;;;;;;2.60;1.50;;;;;;;25.57;15.95;99575.14;1721702;83;21059;-65
2022/04/13 07:45:35;;;;;;;1.62;0.80;;;;;;;25.37;16.18;99570.89;1720572;82;21269;-67
2022/04/13 07:48:04;;;;;;;4.12;0.70;;;;;;;25.24;16.33;99576.81;1717361;82;20931;-67
2022/04/13 07:50:31;;;;;;;3.22;0.70;;;;;;;25.25;16.07;99567.57;1727678;82;20978;-60
2022/04/13 07:52:58;;;;;;;8.05;1.02;;;;;;;25.20;15.93;99567.55;1724226;82;21594;-66
2022/04/13 07:55:25;;;;;;;8.33;1.27;;;;;;;24.98;15.85;99569.56;1725028;81;21087;-65
2022/04/13 07:57:52;;;;;;;9.25;0.95;;;;;;;24.97;15.96;99563.86;1725154;81;21166;-68
2022/04/13 08:00:19;;;;;;;1.12;0.50;;;;;;;25.07;15.98;99565.28;1725509;81;20948;-67
2022/04/13 08:02:45;;;;;;;8.80;1.15;;;;;;;25.14;15.62;99560.42;1723967;82;20969;-66
2022/04/13 08:05:13;;;;;;;11.60;1.10;;;;;;;25.02;15.64;99555.73;1726710;81;20875;-67
2022/04/13 08:07:42;;;;;;;9.20;1.87;;;;;;;24.92;16.01;99565.19;1723855;82;21540;-65
2022/04/13 08:10:09;;;;;;;1.62;1.25;;;;;;;25.03;15.84;99560.89;1725675;81;21142;-62
2022/04/13 08:12:39;;;;;;;4.20;0.57;;;;;;;24.98;15.71;99565.48;1724790;81;20977;-67
2022/04/13 08:15:08;;;;;;;4.75;0.80;;;;;;;24.93;15.82;99560.00;1725592;81;20903;-63
2022/04/13 08:17:38;;;;;;;5.25;0.70;;;;;;;25.01;15.86;99559.52;1725654;81;20958;-65
2022/04/13 08:20:08;;;;;;;3.40;1.42;;;;;;;25.00;15.80;99568.78;1724658;82;20930;-68
2022/04/13 08:22:34;;;;;;;2.10;0.78;;;;;;;25.05;16.06;99566.92;1723853;82;21151;-61
2022/04/13 08:25:02;;;;;;;7.90;0.90;;;;;;;25.21;15.80;99569.73;1724546;82;21394;-66
2022/04/13 08:27:29;;;;;;;7.28;0.90;;;;;;;25.21;15.44;99569.73;1695867;82;21021;-66
2022/04/13 08:29:55;;;;;;;6.50;1.52;;;;;;;25.26;15.17;99565.67;1701275;82;21015;-69
2022/04/13 08:32:24;;;;;;;1.92;0.50;;;;;;;25.07;15.21;99568.83;1703678;82;21127;-64
2022/04/13 08:34:53;;;;;;;8.33;1.17;;;;;;;24.90;15.16;99576.31;1701020;84;21281;-67
2022/04/13 08:37:22;;;;;;;5.95;1.15;;;;;;;24.77;15.42;99556.88;1703046;82;20982;-67
2022/04/13 08:39:48;;;;;;;5.28;0.65;;;;;;;24.77;15.42;99556.88;1700947;84;20950;-67
2022/04/13 08:42:33;;;;;;;5.28;0.62;;;;;;;24.76;15.23;99562.86;1701178;84;21566;-70
2022/04/13 08:45:08;;;;;;;4.67;0.93;;;;;;;24.80;15.35;99559.09;1704455;82;20958;-67
2022/04/13 08:47:37;;;;;;;2.35;0.70;;;;;;;24.87;15.35;99571.95;1694975;82;21237;-64
2022/04/13 08:50:05;;;;;;;5.22;0.60;;;;;;;25.15;15.28;99542.48;1684298;84;20952;-67
2022/04/13 08:52:33;;;;;;;5.80;1.00;;;;;;;25.24;14.91;99551.52;1677051;85;21008;-68
2022/04/13 08:55:14;;;;;;;2.83;0.93;;;;;;;25.16;15.21;99544.64;1676917;85;21517;-64
2022/04/13 08:57:48;;;;;;;3.17;0.80;;;;;;;25.56;15.03;99544.06;1671321;85;20991;-64
2022/04/13 09:00:19;;;;;;;6.33;0.90;;;;;;;25.56;15.03;99544.06;1676952;85;21285;-65
2022/04/13 09:03:26;;;;;;;6.87;0.80;;;;;;;25.71;15.10;99555.02;1678795;85;21497;-64
2022/04/13 09:05:57;;;;;;;3.05;0.80;;;;;;;25.88;14.89;99557.00;1678494;85;21022;-64
2022/04/13 09:08:54;;;;;;;4.35;0.85;;;;;;;26.20;14.68;99552.19;1678160;85;21513;-64
2022/04/13 09:11:23;;;;;;;4.58;1.00;;;;;;;26.46;13.92;99542.69;1678930;85;21049;-65
2022/04/13 09:13:50;;;;;;;2.27;0.78;;;;;;;25.49;14.68;99544.86;1677173;85;21678;-64
2022/04/13 09:16:18;;;;;;;3.87;0.60;;;;;;;24.67;15.04;99559.50;1676803;85;21591;-63
2022/04/13 09:18:45;;;;;;;1.45;0.70;;;;;;;24.05;15.51;99557.27;1677182;85;21498;-67
2022/04/13 09:21:17;;;;;;;6.12;0.60;;;;;;;23.14;16.06;99561.53;1676896;85;20892;-65
2022/04/13 09:23:44;;;;;;;2.67;0.68;;;;;;;22.45;16.62;99568.78;1678642;85;21004;-69
2022/04/13 09:26:11;;;;;;;3.20;0.50;;;;;;;21.99;16.97;99579.33;1676909;85;21171;-68
2022/04/13 09:28:37;;;;;;;1.25;0.50;;;;;;;21.12;17.80;99556.09;1677146;85;21078;-65
2022/04/13 09:31:04;;;;;;;2.47;0.45;;;;;;;20.54;18.21;99573.07;1676580;85;21004;-69
2022/04/13 09:33:31;;;;;;;5.97;0.80;;;;;;;21.06;17.93;99568.67;1677191;85;21018;-65
2022/04/13 09:35:58;;;;;;;3.42;0.85;;;;;;;21.82;17.17;99569.74;1678045;85;20998;-69
2022/04/13 09:38:26;;;;;;;5.10;0.55;;;;;;;21.38;17.45;99577.20;1678791;85;21164;-63
2022/04/13 09:40:52;;;;;;;3.30;0.95;;;;;;;21.34;17.42;99568.77;1678472;85;21003;-65
2022/04/13 09:43:22;;;;;;;6.62;0.90;;;;;;;21.28;17.16;99577.81;1676929;85;20993;-68
2022/04/13 09:45:51;;;;;;;1.00;0.72;;;;;;;21.80;16.72;99562.92;1678460;85;21098;-66
2022/04/13 09:48:20;;;;;;;4.12;0.60;;;;;;;21.86;15.91;99579.61;1678287;85;21049;-64
2022/04/13 09:50:50;;;;;;;1.45;0.50;;;;;;;22.97;15.51;99578.34;1677235;84;21146;-65
2022/04/13 09:53:19;;;;;;;1.57;0.40;;;;;;;23.31;15.67;99578.59;1676964;85;20994;-66
2022/04/13 09:55:56;;;;;;;0.60;0.53;;;;;;;22.54;16.07;99576.81;1677152;85;20988;-66
2022/04/13 09:58:29;;;;;;;4.95;0.60;;;;;;;21.93;16.39;99579.75;1678287;85;21022;-65
2022/04/13 10:01:00;;;;;;;0.82;0.70;;;;;;;21.54;17.18;99579.19;1677124;85;20912;-66
2022/04/13 10:03:25;;;;;;;1.37;0.68;;;;;;;21.06;17.86;99570.52;1669248;85;21143;-69
2022/04/13 10:05:54;;;;;;;2.52;0.80;;;;;;;21.57;17.80;99578.72;1677280;85;21292;-66
2022/04/13 10:08:23;;;;;;;2.27;0.55;;;;;;;21.34;18.00;99570.64;1677258;85;21492;-67
2022/04/13 10:10:53;;;;;;;2.22;0.60;;;;;;;21.37;17.98;99560.70;1677233;85;20963;-64
2022/04/13 10:13:40;;;;;;;3.52;0.60;;;;;;;20.90;17.68;99565.28;1678364;85;21488;-66
2022/04/13 10:16:10;;;;;;;1.42;0.50;;;;;;;20.23;18.31;99559.80;1678549;85;21358;-64
2022/04/13 10:18:58;;;;;;;4.85;0.70;;;;;;;19.54;18.98;99570.58;1677312;85;21564;-64
2022/04/13 10:21:43;;;;;;;4.92;0.62;;;;;;;19.07;19.34;99563.19;1678372;85;21102;-66
2022/04/13 10:24:13;;;;;;;2.85;0.70;;;;;;;18.66;19.45;99561.61;1662324;85;21003;-66
2022/04/13 10:26:42;;;;;;;1.95;0.60;;;;;;;18.23;20.12;99564.99;1677191;85;20971;-65
2022/04/13 10:29:17;;;;;;;2.37;0.45;;;;;;;18.02;20.68;99553.22;1677019;85;21130;-64
2022/04/13 10:32:03;;;;;;;3.35;0.78;;;;;;;17.91;20.73;99563.31;1677297;85;20911;-66
2022/04/13 10:34:31;;;;;;;3.20;0.30;;;;;;;17.79;21.23;99565.05;1672855;84;21030;-64
2022/04/13 10:36:59;;;;;;;3.62;0.40;;;;;;;17.64;21.22;99573.91;1676806;85;21023;-69
2022/04/13 10:39:26;;;;;;;2.65;0.50;;;;;;;17.52;21.17;99571.02;1678919;85;21015;-66
2022/04/13 10:41:53;;;;;;;0.90;0.50;;;;;;;17.46;21.10;99554.92;1678546;85;21494;-64
2022/04/13 10:44:30;;;;;;;0.37;0.28;;;;;;;17.44;21.01;99563.18;1677760;85;21011;-65
2022/04/13 10:47:03;;;;;;;1.25;0.40;;;;;;;17.48;20.97;99566.28;1677208;85;20935;-64
2022/04/13 10:49:48;;;;;;;1.07;0.47;;;;;;;17.56;21.13;99563.39;1670988;83;21038;-65
2022/04/13 10:52:50;;;;;;;0.50;0.40;;;;;;;17.71;21.23;99562.59;1687635;84;21599;-63
2022/04/13 10:55:16;;;;;;;1.07;0.60;;;;;;;17.85;21.11;99566.37;1689079;84;21273;-69
2022/04/13 10:57:53;;;;;;;1.17;0.50;;;;;;;18.05;21.04;99552.79;1686180;84;20985;-69
2022/04/13 11:00:21;;;;;;;1.20;0.60;;;;;;;18.18;20.80;99552.70;1689508;82;21588;-64
2022/04/13 11:02:53;;;;;;;0.68;0.37;;;;;;;18.22;20.62;99555.80;1687703;84;21046;-66
2022/04/13 11:05:22;;;;;;;2.58;0.60;;;;;;;18.18;20.74;99563.48;1687169;84;21032;-64
2022/04/13 11:07:54;;;;;;;1.67;0.70;;;;;;;18.24;20.86;99544.28;1687220;84;21290;-67
2022/04/13 11:10:21;;;;;;;2.67;0.40;;;;;;;18.27;20.76;99541.16;1686058;84;21512;-66
2022/04/13 11:12:47;;;;;;;1.75;0.53;;;;;;;18.19;20.86;99553.02;1688986;84;21066;-66
2022/04/13 11:15:15;;;;;;;0.88;0.57;;;;;;;18.17;20.93;99548.35;1686855;84;21045;-71
2022/04/13 11:17:43;;;;;;;1.10;0.50;;;;;;;18.20;21.18;99547.92;1685740;84;20951;-62
2022/04/13 11:20:20;;;;;;;0.78;0.60;;;;;;;18.34;21.43;99532.50;1686759;84;21272;-67
2022/04/13 11:22:48;;;;;;;4.37;1.10;;;;;;;18.41;21.59;99548.08;1688945;84;21454;-63
2022/04/13 11:25:46;;;;;;;1.72;0.90;;;;;;;18.57;21.83;99538.66;1641171;84;21022;-66
2022/04/13 11:28:25;;;;;;;1.55;0.78;;;;;;;18.80;21.61;99536.17;1687001;84;20959;-67
2022/04/13 11:31:08;;;;;;;3.47;0.85;;;;;;;19.00;21.12;99535.48;1685897;84;20943;-65
2022/04/13 11:33:57;;;;;;;3.40;0.80;;;;;;;19.05;20.83;99534.28;1679117;84;21257;-66
2022/04/13 11:36:29;;;;;;;3.47;1.10;;;;;;;19.03;20.70;99535.03;1687656;84;21627;-63
2022/04/13 11:38:56;;;;;;;0.90;0.65;;;;;;;19.04;20.66;99534.80;1686062;84;20963;-64
2022/04/13 11:41:23;;;;;;;3.30;0.68;;;;;;;19.02;20.58;99526.64;1688144;84;21045;-64
2022/04/13 11:43:50;;;;;;;3.08;0.78;;;;;;;18.99;20.77;99533.30;1685706;84;20958;-64
2022/04/13 11:46:38;;;;;;;1.87;0.90;;;;;;;18.94;20.96;99529.10;1686156;84;21767;-65